createdAt,value
2019-04-25T00:00:38.026Z,17.00
2019-04-25T00:03:12.220Z,17.00
2019-04-25T00:05:44.737Z,17.00
2019-04-25T00:08:17.435Z,17.00
2019-04-25T00:10:49.567Z,16.90
2019-04-25T00:13:22.064Z,16.90
2019-04-25T00:15:54.163Z,16.80
2019-04-25T00:18:26.357Z,16.80
2019-04-25T00:21:02.740Z,16.80
2019-04-25T00:23:36.065Z,16.80
2019-04-25T00:26:26.874Z,16.80
2019-04-25T00:28:59.027Z,16.80
2019-04-25T00:31:31.881Z,16.70
2019-04-25T00:34:04.368Z,16.70
2019-04-25T00:36:38.972Z,16.70
2019-04-25T00:39:11.885Z,16.60
2019-04-25T00:41:46.158Z,16.60
2019-04-25T00:44:19.181Z,16.60
2019-04-25T00:46:56.165Z,16.60
2019-04-25T00:49:25.463Z,16.60
2019-04-25T00:51:57.833Z,16.50
2019-04-25T00:54:31.351Z,16.50
2019-04-25T00:57:03.673Z,16.50
2019-04-25T00:59:45.466Z,16.40
2019-04-25T01:02:36.617Z,16.40
2019-04-25T01:05:09.677Z,16.40
2019-04-25T01:07:42.321Z,16.40
2019-04-25T01:10:15.439Z,16.30
2019-04-25T01:12:48.204Z,16.30
2019-04-25T01:15:21.439Z,16.30
2019-04-25T01:17:54.120Z,16.30
2019-04-25T01:20:27.213Z,16.30
2019-04-25T01:23:00.928Z,16.20
2019-04-25T01:25:40.913Z,16.10
2019-04-25T01:28:07.909Z,16.10
2019-04-25T01:30:40.906Z,16.00
2019-04-25T01:33:13.605Z,16.00
2019-04-25T01:36:00.550Z,16.00
2019-04-25T01:38:49.139Z,16.00
2019-04-25T01:41:41.897Z,15.90
2019-04-25T01:44:21.759Z,15.90
2019-04-25T01:46:55.318Z,15.90
2019-04-25T01:49:28.423Z,15.90
2019-04-25T01:52:00.505Z,15.90
2019-04-25T01:54:33.955Z,15.90
2019-04-25T01:57:06.620Z,15.90
2019-04-25T01:59:39.323Z,15.80
2019-04-25T02:02:14.660Z,15.90
2019-04-25T02:04:47.227Z,15.80
2019-04-25T02:07:19.990Z,15.80
2019-04-25T02:09:54.743Z,15.80
2019-04-25T02:12:43.596Z,15.70
2019-04-25T02:15:17.609Z,15.70
2019-04-25T02:17:51.099Z,15.70
2019-04-25T02:20:23.972Z,15.70
2019-04-25T02:22:56.464Z,15.70
2019-04-25T02:25:28.987Z,15.70
2019-04-25T02:28:02.437Z,15.70
2019-04-25T02:30:36.002Z,15.70
2019-04-25T02:33:09.323Z,15.70
2019-04-25T02:35:44.005Z,15.70
2019-04-25T02:38:17.024Z,15.80
2019-04-25T02:40:49.758Z,15.70
2019-04-25T02:43:23.896Z,15.70
2019-04-25T02:46:15.205Z,15.60
2019-04-25T02:49:29.758Z,15.60
2019-04-25T02:52:03.427Z,15.50
2019-04-25T02:54:36.354Z,15.50
2019-04-25T02:57:10.007Z,15.40
2019-04-25T02:59:44.826Z,15.40
2019-04-25T03:02:17.156Z,15.30
2019-04-25T03:04:49.214Z,15.30
2019-04-25T03:07:21.366Z,15.20
2019-04-25T03:09:54.783Z,15.20
2019-04-25T03:12:33.220Z,15.10
2019-04-25T03:15:02.089Z,15.10
2019-04-25T03:17:35.157Z,15.00
2019-04-25T03:20:35.273Z,15.00
2019-04-25T03:23:35.002Z,15.00
2019-04-25T03:26:08.015Z,14.90
2019-04-25T03:28:40.102Z,14.90
2019-04-25T03:31:18.696Z,14.80
2019-04-25T03:33:46.389Z,14.70
2019-04-25T03:36:18.655Z,14.60
2019-04-25T03:38:51.131Z,14.60
2019-04-25T03:41:24.550Z,14.60
2019-04-25T03:43:56.764Z,14.50
2019-04-25T03:46:28.837Z,14.50
2019-04-25T03:49:01.206Z,14.50
2019-04-25T03:51:34.287Z,14.50
2019-04-25T03:54:07.486Z,14.40
2019-04-25T03:56:49.865Z,14.40
2019-04-25T03:59:15.920Z,14.30
2019-04-25T04:01:47.908Z,14.40
2019-04-25T04:04:19.906Z,14.40
2019-04-25T04:06:53.597Z,14.30
2019-04-25T04:09:25.654Z,14.30
2019-04-25T04:11:57.975Z,14.30
2019-04-25T04:14:30.085Z,14.40
2019-04-25T04:17:36.441Z,14.60
2019-04-25T04:20:27.118Z,14.70
2019-04-25T04:23:07.377Z,14.70
2019-04-25T04:25:39.569Z,14.80
2019-04-25T04:28:13.788Z,15.00
2019-04-25T04:30:46.431Z,15.30
2019-04-25T04:33:29.494Z,15.50
2019-04-25T04:35:54.325Z,15.70
2019-04-25T04:38:27.258Z,15.80
2019-04-25T04:40:59.952Z,15.90
2019-04-25T04:43:34.218Z,15.70
2019-04-25T04:46:06.771Z,15.80
2019-04-25T04:48:39.148Z,15.80
2019-04-25T04:51:11.188Z,16.10
2019-04-25T04:53:43.849Z,16.50
2019-04-25T04:56:16.513Z,16.80
2019-04-25T04:58:49.579Z,17.20
2019-04-25T05:01:24.725Z,17.60
2019-04-25T05:04:14.542Z,17.90
2019-04-25T05:06:54.127Z,18.00
2019-04-25T05:09:28.101Z,18.30
2019-04-25T05:12:00.182Z,18.40
2019-04-25T05:14:33.653Z,18.50
2019-04-25T05:17:07.752Z,18.70
2019-04-25T05:19:40.265Z,19.10
2019-04-25T05:22:14.443Z,19.20
2019-04-25T05:24:46.118Z,19.40
2019-04-25T05:27:33.712Z,19.60
2019-04-25T05:29:51.983Z,19.60
2019-04-25T05:32:25.209Z,19.50
2019-04-25T05:34:57.386Z,19.60
2019-04-25T05:37:29.455Z,19.70
2019-04-25T05:40:01.470Z,19.90
2019-04-25T05:42:55.229Z,19.80
2019-04-25T05:45:29.244Z,20.00
2019-04-25T05:48:01.519Z,19.80
2019-04-25T05:50:33.944Z,19.70
2019-04-25T05:53:06.169Z,19.70
2019-04-25T05:55:38.252Z,19.90
2019-04-25T05:58:10.426Z,19.80
2019-04-25T06:00:44.073Z,19.70
2019-04-25T06:03:17.186Z,19.30
2019-04-25T06:05:50.643Z,19.40
2019-04-25T06:08:26.465Z,19.80
2019-04-25T06:11:10.523Z,20.10
2019-04-25T06:13:51.315Z,20.50
2019-04-25T06:16:43.664Z,20.80
2019-04-25T06:19:34.051Z,21.00
2019-04-25T06:22:08.305Z,21.20
2019-04-25T06:24:52.233Z,21.50
2019-04-25T06:27:31.737Z,21.60
2019-04-25T06:30:08.688Z,21.70
2019-04-25T06:32:41.486Z,22.00
2019-04-25T06:35:14.547Z,22.10
2019-04-25T06:37:47.171Z,21.60
2019-04-25T06:40:20.598Z,21.30
2019-04-25T06:42:53.559Z,21.30
2019-04-25T06:45:56.094Z,21.70
2019-04-25T06:48:38.530Z,22.30
2019-04-25T06:51:11.021Z,22.90
2019-04-25T06:53:43.719Z,22.80
2019-04-25T06:56:16.339Z,22.40
2019-04-25T06:58:49.037Z,21.90
2019-04-25T07:01:22.257Z,21.80
2019-04-25T07:03:55.230Z,22.10
2019-04-25T07:06:27.633Z,22.90
2019-04-25T07:08:59.816Z,23.20
2019-04-25T07:11:32.877Z,24.00
2019-04-25T07:14:06.593Z,24.30
2019-04-25T07:16:39.125Z,24.20
2019-04-25T07:19:11.860Z,24.40
2019-04-25T07:21:44.434Z,24.50
2019-04-25T07:24:17.554Z,24.80
2019-04-25T07:27:07.697Z,24.80
2019-04-25T07:30:01.328Z,25.00
2019-04-25T07:32:44.733Z,24.60
2019-04-25T07:35:17.802Z,24.70
2019-04-25T07:37:49.889Z,25.20
2019-04-25T07:40:23.654Z,25.00
2019-04-25T07:42:55.830Z,24.90
2019-04-25T07:45:28.751Z,25.20
2019-04-25T07:48:00.733Z,24.90
2019-04-25T07:50:34.307Z,25.20
2019-04-25T07:53:06.741Z,25.40
2019-04-25T07:55:38.959Z,25.70
2019-04-25T07:58:11.154Z,26.10
2019-04-25T08:00:43.947Z,26.50
2019-04-25T08:03:16.775Z,26.80
2019-04-25T08:05:49.427Z,26.90
2019-04-25T08:08:23.422Z,27.00
2019-04-25T08:11:04.858Z,27.00
2019-04-25T08:13:46.218Z,27.10
2019-04-25T08:16:20.601Z,26.60
2019-04-25T08:18:54.081Z,25.80
2019-04-25T08:21:26.819Z,26.20
2019-04-25T08:24:01.158Z,26.30
2019-04-25T08:26:36.091Z,26.60
2019-04-25T08:29:08.527Z,26.50
2019-04-25T08:31:41.145Z,26.50
2019-04-25T08:34:14.444Z,26.30
2019-04-25T08:36:47.148Z,26.30
2019-04-25T08:39:19.802Z,26.20
2019-04-25T08:41:53.880Z,26.30
2019-04-25T08:44:26.734Z,26.80
2019-04-25T08:46:59.524Z,27.20
2019-04-25T08:49:40.915Z,27.40
2019-04-25T08:52:13.494Z,27.30
2019-04-25T08:54:57.481Z,26.50
2019-04-25T08:57:47.518Z,26.30
2019-04-25T09:00:44.597Z,26.50
2019-04-25T09:03:19.766Z,27.30
2019-04-25T09:05:53.406Z,27.30
2019-04-25T09:08:25.851Z,27.40
2019-04-25T09:10:57.914Z,27.50
2019-04-25T09:13:29.894Z,27.70
2019-04-25T09:16:03.533Z,27.90
2019-04-25T09:18:37.002Z,27.70
2019-04-25T09:21:09.172Z,27.60
2019-04-25T09:23:41.600Z,27.50
2019-04-25T09:26:14.268Z,27.40
2019-04-25T09:28:46.714Z,27.50
2019-04-25T09:31:18.867Z,27.70
2019-04-25T09:33:55.950Z,28.30
2019-04-25T09:36:27.965Z,28.10
2019-04-25T09:39:03.771Z,28.60
2019-04-25T09:41:36.075Z,28.70
2019-04-25T09:44:09.846Z,28.40
2019-04-25T09:46:44.109Z,28.10
2019-04-25T09:49:23.716Z,28.20
2019-04-25T09:52:15.373Z,28.80
2019-04-25T09:54:59.615Z,28.80
2019-04-25T09:57:43.454Z,28.70
2019-04-25T10:00:37.947Z,29.10
2019-04-25T10:03:10.352Z,28.70
2019-04-25T10:05:42.711Z,28.60
2019-04-25T10:08:14.881Z,28.80
2019-04-25T10:10:46.949Z,29.00
2019-04-25T10:13:18.942Z,28.80
2019-04-25T10:16:12.486Z,28.30
2019-04-25T10:18:45.565Z,28.40
2019-04-25T10:21:18.037Z,28.70
2019-04-25T10:23:51.263Z,28.80
2019-04-25T10:26:24.946Z,28.30
2019-04-25T10:28:57.136Z,28.20
2019-04-25T10:31:29.266Z,28.40
2019-04-25T10:34:01.955Z,28.20
2019-04-25T10:36:34.522Z,28.30
2019-04-25T10:39:11.197Z,28.00
2019-04-25T10:41:44.765Z,27.80
2019-04-25T10:44:16.605Z,28.20
2019-04-25T10:46:48.844Z,28.30
2019-04-25T10:49:20.976Z,28.30
2019-04-25T10:51:53.200Z,28.20
2019-04-25T10:54:25.210Z,28.10
2019-04-25T10:56:57.280Z,28.20
2019-04-25T10:59:29.290Z,28.30
2019-04-25T11:02:01.363Z,28.10
2019-04-25T11:04:41.057Z,28.40
2019-04-25T11:07:14.185Z,28.40
2019-04-25T11:09:47.131Z,28.20
2019-04-25T11:12:20.265Z,27.70
2019-04-25T11:14:53.275Z,27.60
2019-04-25T11:17:26.287Z,27.60
2019-04-25T11:19:58.360Z,27.70
2019-04-25T11:22:30.558Z,27.30
2019-04-25T11:25:02.699Z,27.50
2019-04-25T11:27:35.466Z,27.50
2019-04-25T11:30:11.538Z,27.80
2019-04-25T11:32:45.093Z,27.50
2019-04-25T11:35:19.193Z,27.60
2019-04-25T11:37:52.989Z,27.20
2019-04-25T11:40:34.606Z,27.30
2019-04-25T11:43:07.791Z,27.10
2019-04-25T11:45:41.479Z,27.20
2019-04-25T11:48:13.949Z,27.00
2019-04-25T11:50:49.672Z,26.50
2019-04-25T11:53:20.159Z,26.30
2019-04-25T11:55:53.789Z,26.20
2019-04-25T11:58:27.228Z,25.80
2019-04-25T12:00:59.276Z,25.90
2019-04-25T12:03:31.374Z,25.90
2019-04-25T12:06:03.942Z,25.80
2019-04-25T12:08:36.014Z,25.80
2019-04-25T12:11:08.062Z,25.70
2019-04-25T12:13:40.174Z,25.90
2019-04-25T12:16:14.292Z,26.00
2019-04-25T12:18:49.200Z,25.80
2019-04-25T12:21:20.674Z,25.90
2019-04-25T12:23:53.266Z,25.80
2019-04-25T12:26:26.317Z,25.80
2019-04-25T12:28:59.230Z,25.80
2019-04-25T12:31:31.995Z,25.80
2019-04-25T12:34:04.201Z,25.70
2019-04-25T12:36:36.578Z,25.70
2019-04-25T12:39:10.055Z,25.50
2019-04-25T12:41:44.201Z,25.40
2019-04-25T12:44:33.973Z,25.50
2019-04-25T12:47:13.622Z,25.70
2019-04-25T12:49:46.736Z,25.80
2019-04-25T12:52:19.755Z,25.80
2019-04-25T12:54:55.493Z,25.80
2019-04-25T12:57:26.534Z,25.80
2019-04-25T12:59:59.056Z,25.70
2019-04-25T13:02:34.491Z,25.80
2019-04-25T13:05:07.128Z,25.80
2019-04-25T13:07:39.998Z,25.80
2019-04-25T13:10:13.190Z,25.70
2019-04-25T13:12:47.250Z,25.60
2019-04-25T13:15:19.912Z,25.60
2019-04-25T13:17:53.626Z,25.50
2019-04-25T13:20:26.353Z,25.50
2019-04-25T13:22:59.097Z,25.50
2019-04-25T13:25:31.698Z,25.50
2019-04-25T13:28:23.317Z,25.50
2019-04-25T13:31:14.893Z,25.60
2019-04-25T13:34:14.080Z,25.50
2019-04-25T13:36:47.055Z,25.60
2019-04-25T13:39:20.085Z,25.70
2019-04-25T13:41:54.355Z,25.60
2019-04-25T13:44:27.150Z,25.70
2019-04-25T13:46:59.676Z,25.70
2019-04-25T13:49:32.753Z,25.80
2019-04-25T13:52:05.909Z,25.70
2019-04-25T13:54:40.154Z,25.70
2019-04-25T13:57:13.278Z,25.70
2019-04-25T13:59:45.999Z,25.80
2019-04-25T14:02:18.505Z,25.80
2019-04-25T14:04:51.969Z,25.70
2019-04-25T14:07:24.884Z,25.50
2019-04-25T14:09:56.990Z,25.40
2019-04-25T14:12:30.210Z,25.30
2019-04-25T14:15:03.920Z,25.30
2019-04-25T14:17:57.252Z,25.50
2019-04-25T14:20:45.009Z,25.50
2019-04-25T14:23:17.545Z,25.60
2019-04-25T14:25:49.659Z,25.60
2019-04-25T14:28:21.976Z,25.50
2019-04-25T14:30:54.078Z,25.60
2019-04-25T14:33:27.476Z,25.60
2019-04-25T14:35:59.959Z,25.50
2019-04-25T14:38:33.481Z,25.50
2019-04-25T14:41:08.083Z,25.40
2019-04-25T14:43:40.257Z,25.50
2019-04-25T14:46:12.710Z,25.60
2019-04-25T14:48:44.875Z,25.60
2019-04-25T14:51:17.436Z,25.70
2019-04-25T14:53:50.081Z,25.70
2019-04-25T14:56:39.525Z,25.60
2019-04-25T14:59:11.524Z,25.50
2019-04-25T15:01:45.215Z,25.60
2019-04-25T15:04:17.843Z,25.60
2019-04-25T15:06:50.314Z,25.60
2019-04-25T15:09:23.357Z,25.50
2019-04-25T15:11:55.616Z,25.50
2019-04-25T15:14:27.833Z,25.50
2019-04-25T15:16:59.887Z,25.50
2019-04-25T15:19:32.035Z,25.40
2019-04-25T15:22:04.104Z,25.40
2019-04-25T15:24:36.291Z,25.40
2019-04-25T15:27:09.059Z,25.50
2019-04-25T15:29:41.327Z,25.40
2019-04-25T15:32:16.800Z,25.30
2019-04-25T15:34:54.687Z,25.30
2019-04-25T15:37:35.538Z,25.30
2019-04-25T15:40:29.795Z,25.10
2019-04-25T15:43:33.400Z,25.10
2019-04-25T15:46:11.683Z,25.00
2019-04-25T15:48:43.705Z,25.00
2019-04-25T15:51:15.713Z,24.90
2019-04-25T15:53:47.742Z,24.90
2019-04-25T15:56:19.774Z,24.90
2019-04-25T15:58:52.087Z,24.90
2019-04-25T16:01:24.149Z,24.80
2019-04-25T16:03:56.242Z,24.80
2019-04-25T16:06:28.298Z,24.80
2019-04-25T16:09:00.811Z,24.70
2019-04-25T16:11:33.062Z,24.70
2019-04-25T16:14:05.531Z,24.70
2019-04-25T16:16:38.381Z,24.80
2019-04-25T16:19:10.672Z,24.70
2019-04-25T16:21:42.879Z,24.70
2019-04-25T16:24:15.226Z,24.70
2019-04-25T16:26:47.389Z,24.80
2019-04-25T16:29:19.487Z,24.80
2019-04-25T16:31:51.820Z,24.80
2019-04-25T16:34:23.880Z,24.70
2019-04-25T16:36:56.098Z,24.80
2019-04-25T16:39:30.925Z,24.70
2019-04-25T16:42:03.260Z,24.70
2019-04-25T16:44:36.147Z,24.60
2019-04-25T16:47:08.823Z,24.60
2019-04-25T16:49:41.988Z,24.60
2019-04-25T16:52:17.550Z,24.60
2019-04-25T16:54:48.689Z,24.60
2019-04-25T16:57:21.446Z,24.60
2019-04-25T16:59:53.633Z,24.50
2019-04-25T17:02:35.504Z,24.50
2019-04-25T17:05:05.177Z,24.40
2019-04-25T17:07:37.216Z,24.40
2019-04-25T17:10:10.715Z,24.30
2019-04-25T17:12:42.743Z,24.30
2019-04-25T17:15:32.152Z,24.30
2019-04-25T17:18:17.273Z,24.20
2019-04-25T17:20:54.628Z,24.20
2019-04-25T17:23:27.239Z,24.10
2019-04-25T17:25:59.458Z,24.00
2019-04-25T17:28:33.175Z,24.00
2019-04-25T17:31:39.497Z,24.00
2019-04-25T17:34:30.777Z,23.90
2019-04-25T17:37:18.161Z,23.80
2019-04-25T17:39:54.037Z,23.80
2019-04-25T17:42:26.338Z,23.70
2019-04-25T17:44:58.428Z,23.70
2019-04-25T17:47:30.713Z,23.60
2019-04-25T17:50:03.074Z,23.60
2019-04-25T17:52:36.172Z,23.50
2019-04-25T17:55:09.172Z,23.40
2019-04-25T17:57:42.086Z,23.30
2019-04-25T18:00:26.836Z,23.30
2019-04-25T18:02:59.337Z,23.20
2019-04-25T18:05:31.553Z,23.10
2019-04-25T18:08:03.658Z,23.10
2019-04-25T18:10:36.168Z,23.10
2019-04-25T18:13:09.576Z,23.00
2019-04-25T18:16:00.719Z,23.00
2019-04-25T18:18:54.360Z,23.00
2019-04-25T18:21:26.474Z,22.90
2019-04-25T18:24:26.395Z,22.80
2019-04-25T18:27:17.433Z,22.80
2019-04-25T18:29:49.643Z,22.60
2019-04-25T18:32:22.349Z,22.60
2019-04-25T18:34:59.630Z,22.60
2019-04-25T18:37:48.862Z,22.40
2019-04-25T18:40:39.833Z,22.40
2019-04-25T18:43:34.400Z,22.40
2019-04-25T18:46:11.599Z,22.30
2019-04-25T18:48:44.934Z,22.10
2019-04-25T18:51:17.446Z,22.10
2019-04-25T18:54:07.009Z,22.00
2019-04-25T18:57:03.967Z,22.00
2019-04-25T18:59:44.858Z,22.00
2019-04-25T19:02:39.798Z,21.90
2019-04-25T19:05:33.751Z,21.80
2019-04-25T19:08:06.471Z,21.80
2019-04-25T19:10:39.565Z,21.80
2019-04-25T19:13:13.151Z,21.80
2019-04-25T19:15:45.563Z,21.80
2019-04-25T19:18:17.698Z,21.80
2019-04-25T19:21:04.594Z,21.70
2019-04-25T19:23:36.836Z,21.70
2019-04-25T19:26:10.826Z,21.70
2019-04-25T19:28:43.181Z,21.70
2019-04-25T19:31:15.366Z,21.70
2019-04-25T19:33:47.575Z,21.70
2019-04-25T19:36:20.283Z,21.70
2019-04-25T19:38:52.999Z,21.80
2019-04-25T19:41:49.749Z,21.80
2019-04-25T19:44:26.174Z,21.80
2019-04-25T19:46:59.071Z,21.70
2019-04-25T19:49:31.542Z,21.70
2019-04-25T19:52:04.553Z,21.70
2019-04-25T19:54:37.262Z,21.60
2019-04-25T19:57:09.989Z,21.60
2019-04-25T19:59:43.255Z,21.50
2019-04-25T20:02:38.181Z,21.50
2019-04-25T20:05:18.188Z,21.50
2019-04-25T20:08:28.243Z,21.40
2019-04-25T20:11:05.102Z,21.30
2019-04-25T20:13:49.265Z,21.20
2019-04-25T20:16:22.206Z,21.10
2019-04-25T20:18:54.824Z,21.10
2019-04-25T20:21:27.680Z,21.00
2019-04-25T20:24:00.559Z,20.90
2019-04-25T20:26:33.086Z,20.90
2019-04-25T20:29:05.847Z,20.90
2019-04-25T20:31:38.309Z,20.90
2019-04-25T20:34:10.736Z,20.90
2019-04-25T20:36:43.577Z,20.90
2019-04-25T20:39:16.178Z,20.80
2019-04-25T20:41:49.747Z,20.80
2019-04-25T20:44:22.587Z,20.80
2019-04-25T20:46:55.305Z,20.80
2019-04-25T20:49:28.071Z,20.70
2019-04-25T20:52:00.578Z,20.80
2019-04-25T20:54:33.227Z,20.70
2019-04-25T20:57:05.921Z,20.80
2019-04-25T20:59:38.769Z,20.80
2019-04-25T21:02:11.210Z,20.80
2019-04-25T21:04:44.073Z,20.70
2019-04-25T21:07:17.039Z,20.70
2019-04-25T21:09:50.379Z,20.70
2019-04-25T21:12:24.113Z,20.60
2019-04-25T21:15:13.182Z,20.60
2019-04-25T21:18:02.367Z,20.50
2019-04-25T21:20:35.117Z,20.50
2019-04-25T21:23:07.734Z,20.50
2019-04-25T21:25:40.487Z,20.50
2019-04-25T21:28:13.333Z,20.50
2019-04-25T21:30:46.127Z,20.50
2019-04-25T21:33:18.874Z,20.40
2019-04-25T21:35:52.534Z,20.30
2019-04-25T21:38:26.194Z,20.20
2019-04-25T21:41:20.623Z,20.20
2019-04-25T21:43:58.428Z,20.20
2019-04-25T21:46:31.478Z,20.20
2019-04-25T21:49:04.601Z,20.10
2019-04-25T21:51:37.513Z,20.20
2019-04-25T21:54:10.038Z,20.00
2019-04-25T21:56:42.895Z,20.00
2019-04-25T21:59:15.876Z,19.90
2019-04-25T22:01:49.167Z,19.90
2019-04-25T22:04:21.991Z,19.90
2019-04-25T22:06:56.005Z,19.90
2019-04-25T22:09:29.447Z,19.80
2019-04-25T22:12:03.021Z,19.70
2019-04-25T22:14:36.164Z,19.70
2019-04-25T22:17:09.856Z,19.60
2019-04-25T22:19:43.124Z,19.60
2019-04-25T22:22:16.015Z,19.60
2019-04-25T22:24:49.220Z,19.50
2019-04-25T22:27:27.242Z,19.50
2019-04-25T22:30:00.026Z,19.40
2019-04-25T22:32:51.048Z,19.30
2019-04-25T22:35:26.896Z,19.30
2019-04-25T22:38:00.033Z,19.40
2019-04-25T22:40:32.579Z,19.40
2019-04-25T22:43:05.929Z,19.40
2019-04-25T22:45:38.858Z,19.40
2019-04-25T22:48:11.532Z,19.50
2019-04-25T22:50:44.187Z,19.50
2019-04-25T22:53:23.766Z,19.50
2019-04-25T22:55:50.970Z,19.60
2019-04-25T22:58:23.493Z,19.60
2019-04-25T23:00:56.149Z,19.60
2019-04-25T23:03:36.045Z,19.60
2019-04-25T23:06:09.627Z,19.60
2019-04-25T23:08:42.429Z,19.60
2019-04-25T23:11:15.049Z,19.60
2019-04-25T23:13:47.787Z,19.60
2019-04-25T23:16:20.368Z,19.50
2019-04-25T23:18:53.137Z,19.50
2019-04-25T23:21:25.776Z,19.50
2019-04-25T23:23:59.758Z,19.50
2019-04-25T23:26:51.064Z,19.40
2019-04-25T23:29:23.959Z,19.50
2019-04-25T23:31:56.266Z,19.50
2019-04-25T23:34:29.035Z,19.50
2019-04-25T23:37:01.379Z,19.40
2019-04-25T23:39:34.464Z,19.40
2019-04-25T23:42:07.307Z,19.40
2019-04-25T23:44:40.449Z,19.30
2019-04-25T23:47:13.064Z,19.40
2019-04-25T23:49:45.488Z,19.40
2019-04-25T23:52:18.345Z,19.30
2019-04-25T23:54:50.984Z,19.30
2019-04-25T23:57:24.070Z,19.30
2019-04-25T23:59:56.966Z,19.20
